sensor_id;sensor_type;location;lat;lon;timestamp;pressure;altitude;pressure_sealevel;temperature;humidity
73453;BME280;61687;56.232;43.854;2022-09-23T19:21:39;99983.97;;;13.22;80.34
73453;BME280;61687;56.232;43.854;2022-09-23T19:24:06;99973.75;;;13.23;80.52
73453;BME280;61687;56.232;43.854;2022-09-23T19:26:38;99969.84;;;13.20;80.63
73453;BME280;61687;56.232;43.854;2022-09-23T19:29:05;99958.44;;;13.18;80.69
73453;BME280;61687;56.232;43.854;2022-09-23T19:31:37;99953.31;;;13.16;80.71
73453;BME280;61687;56.232;43.854;2022-09-23T19:34:11;99953.34;;;13.09;80.67
73453;BME280;61687;56.232;43.854;2022-09-23T19:36:40;99939.97;;;13.00;81.03
73453;BME280;61687;56.232;43.854;2022-09-23T19:39:20;99933.28;;;12.91;81.40
73453;BME280;61687;56.232;43.854;2022-09-23T19:41:47;99932.88;;;12.85;81.54
73453;BME280;61687;56.232;43.854;2022-09-23T19:44:14;99925.84;;;12.87;81.61
73453;BME280;61687;56.232;43.854;2022-09-23T19:46:41;99933.28;;;12.91;81.53
73453;BME280;61687;56.232;43.854;2022-09-23T19:49:10;99931.31;;;12.98;81.58
73453;BME280;61687;56.232;43.854;2022-09-23T19:51:36;99926.19;;;13.04;81.35
73453;BME280;61687;56.232;43.854;2022-09-23T19:54:06;99922.28;;;13.09;81.33
73453;BME280;61687;56.232;43.854;2022-09-23T19:56:33;99923.47;;;13.11;81.10
73453;BME280;61687;56.232;43.854;2022-09-23T19:59:00;99914.78;;;13.13;81.14
73453;BME280;61687;56.232;43.854;2022-09-23T20:01:29;99919.50;;;13.05;81.08
73453;BME280;61687;56.232;43.854;2022-09-23T20:03:55;99912.88;;;13.06;81.22
73453;BME280;61687;56.232;43.854;2022-09-23T20:06:21;99911.69;;;13.07;81.02
73453;BME280;61687;56.232;43.854;2022-09-23T20:08:47;99908.50;;;13.09;81.10
73453;BME280;61687;56.232;43.854;2022-09-23T20:11:21;99898.31;;;13.09;81.14
73453;BME280;61687;56.232;43.854;2022-09-23T20:13:51;99902.63;;;13.07;80.98
73453;BME280;61687;56.232;43.854;2022-09-23T20:16:19;99898.69;;;13.04;81.14
73453;BME280;61687;56.232;43.854;2022-09-23T20:18:49;99904.59;;;13.06;81.37
73453;BME280;61687;56.232;43.854;2022-09-23T20:21:16;99901.84;;;13.06;81.13
73453;BME280;61687;56.232;43.854;2022-09-23T20:23:42;99894.38;;;13.03;81.18
73453;BME280;61687;56.232;43.854;2022-09-23T20:26:08;99899.09;;;12.99;81.41
73453;BME280;61687;56.232;43.854;2022-09-23T20:28:54;99904.59;;;12.99;81.55
73453;BME280;61687;56.232;43.854;2022-09-23T20:31:21;99901.88;;;12.95;81.58
73453;BME280;61687;56.232;43.854;2022-09-23T20:33:51;99894.00;;;12.94;81.78
73453;BME280;61687;56.232;43.854;2022-09-23T20:36:19;99901.47;;;12.97;81.84
73453;BME280;61687;56.232;43.854;2022-09-23T20:38:45;99895.97;;;13.00;81.78
73453;BME280;61687;56.232;43.854;2022-09-23T20:41:11;99894.38;;;13.03;81.71
73453;BME280;61687;56.232;43.854;2022-09-23T20:43:38;99881.03;;;13.01;81.71
73453;BME280;61687;56.232;43.854;2022-09-23T20:46:04;99888.09;;;13.02;81.83
73453;BME280;61687;56.232;43.854;2022-09-23T20:48:30;99894.38;;;13.03;81.86
73453;BME280;61687;56.232;43.854;2022-09-23T20:51:00;99886.50;;;13.09;81.69
73453;BME280;61687;56.232;43.854;2022-09-23T20:53:26;99872.38;;;13.10;81.65
73453;BME280;61687;56.232;43.854;2022-09-23T20:55:55;99877.88;;;13.10;81.60
73453;BME280;61687;56.232;43.854;2022-09-23T20:58:29;99867.25;;;13.05;81.31
73453;BME280;61687;56.232;43.854;2022-09-23T21:01:07;99870.44;;;12.96;81.66
73453;BME280;61687;56.232;43.854;2022-09-23T21:03:38;99857.06;;;12.91;81.98
73453;BME280;61687;56.232;43.854;2022-09-23T21:06:06;99843.72;;;12.79;82.38
73453;BME280;61687;56.232;43.854;2022-09-23T21:08:34;99844.13;;;12.70;82.70
73453;BME280;61687;56.232;43.854;2022-09-23T21:11:04;99827.63;;;12.66;83.02
73453;BME280;61687;56.232;43.854;2022-09-23T21:13:31;99837.84;;;12.62;83.09
73453;BME280;61687;56.232;43.854;2022-09-23T21:16:04;99833.91;;;12.63;83.33
73453;BME280;61687;56.232;43.854;2022-09-23T21:18:32;99834.72;;;12.64;83.28
73453;BME280;61687;56.232;43.854;2022-09-23T21:21:00;99837.06;;;12.69;83.15
73453;BME280;61687;56.232;43.854;2022-09-23T21:23:27;99836.66;;;12.74;83.06
73453;BME280;61687;56.232;43.854;2022-09-23T21:28:29;99821.72;;;12.75;82.86
73453;BME280;61687;56.232;43.854;2022-09-23T21:31:07;99819.75;;;12.79;82.81
73453;BME280;61687;56.232;43.854;2022-09-23T21:33:33;99825.25;;;12.83;82.55
73453;BME280;61687;56.232;43.854;2022-09-23T21:36:01;99818.19;;;12.85;82.64
73453;BME280;61687;56.232;43.854;2022-09-23T21:38:29;99804.81;;;12.84;82.41
73453;BME280;61687;56.232;43.854;2022-09-23T21:40:59;99811.88;;;12.81;82.50
73453;BME280;61687;56.232;43.854;2022-09-23T21:43:27;99800.88;;;12.81;82.70
73453;BME280;61687;56.232;43.854;2022-09-23T21:45:57;99801.28;;;12.83;82.70
73453;BME280;61687;56.232;43.854;2022-09-23T21:48:32;99800.50;;;12.86;82.70
73453;BME280;61687;56.232;43.854;2022-09-23T21:51:01;99789.09;;;12.88;82.28
73453;BME280;61687;56.232;43.854;2022-09-23T21:53:29;99783.63;;;12.84;82.36
73453;BME280;61687;56.232;43.854;2022-09-23T21:56:07;99781.63;;;12.81;82.48
73453;BME280;61687;56.232;43.854;2022-09-23T21:58:34;99779.69;;;12.85;82.50
73453;BME280;61687;56.232;43.854;2022-09-23T22:01:05;99779.66;;;12.89;82.20
73453;BME280;61687;56.232;43.854;2022-09-23T22:03:32;99780.84;;;12.92;82.11
73453;BME280;61687;56.232;43.854;2022-09-23T22:06:05;99785.16;;;12.93;82.09
73453;BME280;61687;56.232;43.854;2022-09-23T22:08:36;99774.56;;;12.91;82.10
73453;BME280;61687;56.232;43.854;2022-09-23T22:11:13;99774.16;;;12.93;81.97
73453;BME280;61687;56.232;43.854;2022-09-23T22:13:59;99775.34;;;12.95;81.82
73453;BME280;61687;56.232;43.854;2022-09-23T22:16:27;99770.22;;;12.97;81.72
73453;BME280;61687;56.232;43.854;2022-09-23T22:18:57;99767.06;;;12.99;81.67
73453;BME280;61687;56.232;43.854;2022-09-23T22:21:28;99763.94;;;12.97;81.78
73453;BME280;61687;56.232;43.854;2022-09-23T22:23:56;99760.81;;;12.95;81.69
73453;BME280;61687;56.232;43.854;2022-09-23T22:26:23;99754.13;;;12.96;81.97
73453;BME280;61687;56.232;43.854;2022-09-23T22:28:49;99741.16;;;12.96;82.01
73453;BME280;61687;56.232;43.854;2022-09-23T22:31:34;99744.28;;;12.95;81.60
73453;BME280;61687;56.232;43.854;2022-09-23T22:34:18;99738.41;;;12.93;81.71
73453;BME280;61687;56.232;43.854;2022-09-23T22:36:56;99743.13;;;12.92;81.87
73453;BME280;61687;56.232;43.854;2022-09-23T22:39:23;99735.25;;;12.94;81.80
73453;BME280;61687;56.232;43.854;2022-09-23T22:41:50;99735.25;;;12.94;81.75
73453;BME280;61687;56.232;43.854;2022-09-23T22:44:16;99729.34;;;12.96;81.84
73453;BME280;61687;56.232;43.854;2022-09-23T22:46:43;99719.53;;;12.98;81.83
73453;BME280;61687;56.232;43.854;2022-09-23T22:49:10;99709.69;;;13.01;81.67
73453;BME280;61687;56.232;43.854;2022-09-23T22:51:38;99701.84;;;12.99;81.59
73453;BME280;61687;56.232;43.854;2022-09-23T22:54:04;99699.50;;;12.94;81.75
73453;BME280;61687;56.232;43.854;2022-09-23T22:56:31;99695.59;;;12.92;81.82
73453;BME280;61687;56.232;43.854;2022-09-23T22:59:03;99700.72;;;12.90;81.85
73453;BME280;61687;56.232;43.854;2022-09-23T23:01:30;99690.09;;;12.88;81.72
73453;BME280;61687;56.232;43.854;2022-09-23T23:03:57;99684.59;;;12.88;81.71
73453;BME280;61687;56.232;43.854;2022-09-23T23:06:23;99697.97;;;12.90;81.77
73453;BME280;61687;56.232;43.854;2022-09-23T23:08:49;99686.16;;;12.93;81.86
73453;BME280;61687;56.232;43.854;2022-09-23T23:11:15;99686.16;;;12.93;81.68
73453;BME280;61687;56.232;43.854;2022-09-23T23:13:42;99672.41;;;12.93;81.84
73453;BME280;61687;56.232;43.854;2022-09-23T23:16:11;99675.16;;;12.93;81.62
73453;BME280;61687;56.232;43.854;2022-09-23T23:18:39;99668.09;;;12.92;81.73
73453;BME280;61687;56.232;43.854;2022-09-23T23:21:14;99659.03;;;12.91;81.72
73453;BME280;61687;56.232;43.854;2022-09-23T23:23:47;99650.03;;;12.91;81.83
73453;BME280;61687;56.232;43.854;2022-09-23T23:26:19;99650.41;;;12.89;81.94
73453;BME280;61687;56.232;43.854;2022-09-23T23:28:45;99637.47;;;12.90;81.78
73453;BME280;61687;56.232;43.854;2022-09-23T23:31:14;99630.41;;;12.88;81.94
73453;BME280;61687;56.232;43.854;2022-09-23T23:33:43;99627.22;;;12.90;81.81
73453;BME280;61687;56.232;43.854;2022-09-23T23:36:12;99620.53;;;12.91;81.95
73453;BME280;61687;56.232;43.854;2022-09-23T23:38:40;99617.78;;;12.91;81.83
73453;BME280;61687;56.232;43.854;2022-09-23T23:41:08;99615.44;;;12.93;81.82
73453;BME280;61687;56.232;43.854;2022-09-23T23:43:42;99613.84;;;12.96;81.65
73453;BME280;61687;56.232;43.854;2022-09-23T23:46:09;99613.47;;;12.97;81.72
73453;BME280;61687;56.232;43.854;2022-09-23T23:48:36;99602.84;;;12.96;81.80
73453;BME280;61687;56.232;43.854;2022-09-23T23:51:04;99599.72;;;12.97;81.93
73453;BME280;61687;56.232;43.854;2022-09-23T23:53:35;99590.66;;;12.97;81.83
73453;BME280;61687;56.232;43.854;2022-09-23T23:56:07;99584.03;;;12.91;81.90
73453;BME280;61687;56.232;43.854;2022-09-23T23:58:33;99578.53;;;12.83;82.06
